sensor_id;sensor_type;location;lat;lon;timestamp;temperature;humidity
12959;DHT22;6544;51.666;6.634;2022-09-09T00:01:46;16.60;1.00
12959;DHT22;6544;51.666;6.634;2022-09-09T00:04:22;16.60;1.00
12959;DHT22;6544;51.666;6.634;2022-09-09T00:07:01;16.60;1.00
12959;DHT22;6544;51.666;6.634;2022-09-09T00:09:33;16.50;1.00
12959;DHT22;6544;51.666;6.634;2022-09-09T00:12:10;16.60;1.00
12959;DHT22;6544;51.666;6.634;2022-09-09T00:14:45;16.60;1.00
12959;DHT22;6544;51.666;6.634;2022-09-09T00:17:19;16.50;1.00
12959;DHT22;6544;51.666;6.634;2022-09-09T00:19:51;16.60;1.00
12959;DHT22;6544;51.666;6.634;2022-09-09T00:22:23;16.60;1.00
12959;DHT22;6544;51.666;6.634;2022-09-09T00:24:53;16.60;1.00
12959;DHT22;6544;51.666;6.634;2022-09-09T00:27:25;16.70;1.00
12959;DHT22;6544;51.666;6.634;2022-09-09T00:29:59;16.70;1.00
12959;DHT22;6544;51.666;6.634;2022-09-09T00:32:30;16.70;1.00
12959;DHT22;6544;51.666;6.634;2022-09-09T00:35:00;16.80;1.00
12959;DHT22;6544;51.666;6.634;2022-09-09T00:37:28;16.80;1.00
12959;DHT22;6544;51.666;6.634;2022-09-09T00:39:59;16.80;1.00
12959;DHT22;6544;51.666;6.634;2022-09-09T00:42:35;16.70;1.00
12959;DHT22;6544;51.666;6.634;2022-09-09T00:45:19;16.60;1.00
12959;DHT22;6544;51.666;6.634;2022-09-09T00:47:50;16.60;1.00
12959;DHT22;6544;51.666;6.634;2022-09-09T00:50:38;16.60;1.00
12959;DHT22;6544;51.666;6.634;2022-09-09T00:53:28;16.60;1.00
12959;DHT22;6544;51.666;6.634;2022-09-09T00:56:05;16.50;1.00
12959;DHT22;6544;51.666;6.634;2022-09-09T00:58:34;16.60;1.00
12959;DHT22;6544;51.666;6.634;2022-09-09T01:04:29;16.40;1.00
12959;DHT22;6544;51.666;6.634;2022-09-09T01:07:04;16.40;1.00
12959;DHT22;6544;51.666;6.634;2022-09-09T01:09:41;16.40;1.00
12959;DHT22;6544;51.666;6.634;2022-09-09T01:12:15;16.30;1.00
12959;DHT22;6544;51.666;6.634;2022-09-09T01:14:45;16.30;1.00
12959;DHT22;6544;51.666;6.634;2022-09-09T01:17:17;16.30;1.00
12959;DHT22;6544;51.666;6.634;2022-09-09T01:19:55;16.30;1.00
12959;DHT22;6544;51.666;6.634;2022-09-09T01:22:32;16.30;1.00
12959;DHT22;6544;51.666;6.634;2022-09-09T01:27:59;16.30;1.00
12959;DHT22;6544;51.666;6.634;2022-09-09T01:30:28;16.30;1.00
12959;DHT22;6544;51.666;6.634;2022-09-09T01:32:58;16.30;1.00
12959;DHT22;6544;51.666;6.634;2022-09-09T01:35:42;16.20;1.00
12959;DHT22;6544;51.666;6.634;2022-09-09T01:38:12;16.20;1.40
12959;DHT22;6544;51.666;6.634;2022-09-09T01:40:39;16.20;15.00
12959;DHT22;6544;51.666;6.634;2022-09-09T01:43:07;16.20;14.60
12959;DHT22;6544;51.666;6.634;2022-09-09T01:45:34;16.20;19.30
12959;DHT22;6544;51.666;6.634;2022-09-09T01:48:02;16.10;17.50
12959;DHT22;6544;51.666;6.634;2022-09-09T01:50:29;16.10;20.50
12959;DHT22;6544;51.666;6.634;2022-09-09T01:52:58;16.10;18.70
12959;DHT22;6544;51.666;6.634;2022-09-09T01:55:30;16.10;27.60
12959;DHT22;6544;51.666;6.634;2022-09-09T01:58:09;16.10;21.80
12959;DHT22;6544;51.666;6.634;2022-09-09T02:00:42;16.10;13.30
12959;DHT22;6544;51.666;6.634;2022-09-09T02:03:20;16.10;23.20
12959;DHT22;6544;51.666;6.634;2022-09-09T02:05:52;16.10;22.80
12959;DHT22;6544;51.666;6.634;2022-09-09T02:08:24;16.10;20.50
12959;DHT22;6544;51.666;6.634;2022-09-09T02:10:58;16.10;19.10
12959;DHT22;6544;51.666;6.634;2022-09-09T02:13:29;16.10;16.10
12959;DHT22;6544;51.666;6.634;2022-09-09T02:15:57;16.10;8.20
12959;DHT22;6544;51.666;6.634;2022-09-09T02:18:33;16.10;8.90
12959;DHT22;6544;51.666;6.634;2022-09-09T02:21:02;16.10;2.90
12959;DHT22;6544;51.666;6.634;2022-09-09T02:23:30;16.00;10.60
12959;DHT22;6544;51.666;6.634;2022-09-09T02:25:58;16.10;15.10
12959;DHT22;6544;51.666;6.634;2022-09-09T02:28:30;16.10;19.40
12959;DHT22;6544;51.666;6.634;2022-09-09T02:30:59;16.10;14.00
12959;DHT22;6544;51.666;6.634;2022-09-09T02:33:29;16.10;21.90
12959;DHT22;6544;51.666;6.634;2022-09-09T02:35:57;16.10;19.30
12959;DHT22;6544;51.666;6.634;2022-09-09T02:38:31;16.10;33.60
12959;DHT22;6544;51.666;6.634;2022-09-09T02:41:00;16.10;27.40
12959;DHT22;6544;51.666;6.634;2022-09-09T02:43:32;16.10;34.00
12959;DHT22;6544;51.666;6.634;2022-09-09T02:46:11;16.10;40.50
12959;DHT22;6544;51.666;6.634;2022-09-09T02:48:50;16.10;40.70
12959;DHT22;6544;51.666;6.634;2022-09-09T02:51:23;16.00;38.10
12959;DHT22;6544;51.666;6.634;2022-09-09T02:53:57;16.00;42.10
12959;DHT22;6544;51.666;6.634;2022-09-09T02:56:30;16.00;46.70
12959;DHT22;6544;51.666;6.634;2022-09-09T02:59:03;16.10;48.70
12959;DHT22;6544;51.666;6.634;2022-09-09T03:01:30;16.10;53.90
12959;DHT22;6544;51.666;6.634;2022-09-09T03:03:57;16.10;60.40
12959;DHT22;6544;51.666;6.634;2022-09-09T03:06:24;16.10;44.30
12959;DHT22;6544;51.666;6.634;2022-09-09T03:08:51;16.10;49.40
12959;DHT22;6544;51.666;6.634;2022-09-09T03:11:18;16.20;22.90
12959;DHT22;6544;51.666;6.634;2022-09-09T03:13:45;16.20;5.50
12959;DHT22;6544;51.666;6.634;2022-09-09T03:16:13;16.20;1.00
12959;DHT22;6544;51.666;6.634;2022-09-09T03:18:41;16.20;2.00
12959;DHT22;6544;51.666;6.634;2022-09-09T03:21:08;16.10;1.00
12959;DHT22;6544;51.666;6.634;2022-09-09T03:23:35;16.10;9.50
12959;DHT22;6544;51.666;6.634;2022-09-09T03:26:01;16.20;13.90
12959;DHT22;6544;51.666;6.634;2022-09-09T03:28:28;16.20;13.40
12959;DHT22;6544;51.666;6.634;2022-09-09T03:30:59;16.20;16.80
12959;DHT22;6544;51.666;6.634;2022-09-09T03:33:27;16.20;5.40
12959;DHT22;6544;51.666;6.634;2022-09-09T03:35:55;16.20;5.30
12959;DHT22;6544;51.666;6.634;2022-09-09T03:38:23;16.10;5.20
12959;DHT22;6544;51.666;6.634;2022-09-09T03:40:50;16.10;15.40
12959;DHT22;6544;51.666;6.634;2022-09-09T03:43:21;16.10;19.30
12959;DHT22;6544;51.666;6.634;2022-09-09T03:45:48;16.10;28.20
12959;DHT22;6544;51.666;6.634;2022-09-09T03:48:16;16.10;32.60
12959;DHT22;6544;51.666;6.634;2022-09-09T03:50:48;16.20;31.10
12959;DHT22;6544;51.666;6.634;2022-09-09T03:53:16;16.20;27.00
12959;DHT22;6544;51.666;6.634;2022-09-09T03:55:44;16.20;27.70
12959;DHT22;6544;51.666;6.634;2022-09-09T03:58:11;16.20;27.40
12959;DHT22;6544;51.666;6.634;2022-09-09T04:00:38;16.20;32.60
12959;DHT22;6544;51.666;6.634;2022-09-09T04:03:08;16.20;48.70
12959;DHT22;6544;51.666;6.634;2022-09-09T04:05:35;16.20;59.10
12959;DHT22;6544;51.666;6.634;2022-09-09T04:08:06;16.20;57.00
12959;DHT22;6544;51.666;6.634;2022-09-09T04:10:34;16.20;62.80
12959;DHT22;6544;51.666;6.634;2022-09-09T04:13:02;16.20;80.80
12959;DHT22;6544;51.666;6.634;2022-09-09T04:15:29;16.20;90.00
12959;DHT22;6544;51.666;6.634;2022-09-09T04:17:56;16.20;91.30
12959;DHT22;6544;51.666;6.634;2022-09-09T04:20:24;16.20;95.50
12959;DHT22;6544;51.666;6.634;2022-09-09T04:22:51;16.20;93.20
12959;DHT22;6544;51.666;6.634;2022-09-09T04:25:19;16.20;93.00
12959;DHT22;6544;51.666;6.634;2022-09-09T04:27:46;16.20;94.20
12959;DHT22;6544;51.666;6.634;2022-09-09T04:30:13;16.20;99.20
12959;DHT22;6544;51.666;6.634;2022-09-09T04:32:40;16.30;94.00
12959;DHT22;6544;51.666;6.634;2022-09-09T04:35:07;16.30;93.60
12959;DHT22;6544;51.666;6.634;2022-09-09T04:37:34;16.30;91.00
12959;DHT22;6544;51.666;6.634;2022-09-09T04:40:01;16.30;90.20
12959;DHT22;6544;51.666;6.634;2022-09-09T04:42:30;16.30;96.50
12959;DHT22;6544;51.666;6.634;2022-09-09T04:44:56;16.40;96.70
12959;DHT22;6544;51.666;6.634;2022-09-09T04:47:23;16.30;94.00
12959;DHT22;6544;51.666;6.634;2022-09-09T04:49:50;16.30;99.90
12959;DHT22;6544;51.666;6.634;2022-09-09T04:52:19;16.30;99.90
12959;DHT22;6544;51.666;6.634;2022-09-09T04:54:46;16.30;99.90
12959;DHT22;6544;51.666;6.634;2022-09-09T04:57:13;16.30;99.90
12959;DHT22;6544;51.666;6.634;2022-09-09T04:59:42;16.40;99.90
12959;DHT22;6544;51.666;6.634;2022-09-09T05:02:10;16.40;99.90
12959;DHT22;6544;51.666;6.634;2022-09-09T05:04:36;16.40;99.90
12959;DHT22;6544;51.666;6.634;2022-09-09T05:07:03;16.40;99.90
12959;DHT22;6544;51.666;6.634;2022-09-09T05:09:30;16.40;99.90
12959;DHT22;6544;51.666;6.634;2022-09-09T05:11:57;16.40;99.90
12959;DHT22;6544;51.666;6.634;2022-09-09T05:14:24;16.40;97.70
12959;DHT22;6544;51.666;6.634;2022-09-09T05:16:53;16.40;99.90
12959;DHT22;6544;51.666;6.634;2022-09-09T05:19:21;16.40;99.90
12959;DHT22;6544;51.666;6.634;2022-09-09T05:21:48;16.40;99.90
12959;DHT22;6544;51.666;6.634;2022-09-09T05:24:15;16.40;99.90
12959;DHT22;6544;51.666;6.634;2022-09-09T05:26:43;16.40;99.90
12959;DHT22;6544;51.666;6.634;2022-09-09T05:29:10;16.40;99.90
12959;DHT22;6544;51.666;6.634;2022-09-09T05:31:37;16.40;99.90
12959;DHT22;6544;51.666;6.634;2022-09-09T05:34:06;16.40;99.90
12959;DHT22;6544;51.666;6.634;2022-09-09T05:36:33;16.50;99.90
12959;DHT22;6544;51.666;6.634;2022-09-09T05:39:00;16.50;99.90
12959;DHT22;6544;51.666;6.634;2022-09-09T05:41:27;16.50;99.90
12959;DHT22;6544;51.666;6.634;2022-09-09T05:43:54;16.50;99.90
12959;DHT22;6544;51.666;6.634;2022-09-09T05:46:22;16.50;99.90
12959;DHT22;6544;51.666;6.634;2022-09-09T05:48:51;16.50;99.90
12959;DHT22;6544;51.666;6.634;2022-09-09T05:51:24;16.50;99.90
12959;DHT22;6544;51.666;6.634;2022-09-09T05:53:52;16.50;99.90
12959;DHT22;6544;51.666;6.634;2022-09-09T05:56:22;16.50;99.90
12959;DHT22;6544;51.666;6.634;2022-09-09T05:58:51;16.50;99.90
12959;DHT22;6544;51.666;6.634;2022-09-09T06:01:21;16.50;99.90
12959;DHT22;6544;51.666;6.634;2022-09-09T06:03:49;16.50;99.90
12959;DHT22;6544;51.666;6.634;2022-09-09T06:06:17;16.60;99.90
12959;DHT22;6544;51.666;6.634;2022-09-09T06:08:49;16.50;99.90
12959;DHT22;6544;51.666;6.634;2022-09-09T06:11:19;16.50;99.90
12959;DHT22;6544;51.666;6.634;2022-09-09T06:13:47;16.50;99.90
12959;DHT22;6544;51.666;6.634;2022-09-09T06:16:18;16.60;99.90
12959;DHT22;6544;51.666;6.634;2022-09-09T06:18:45;16.60;99.90
12959;DHT22;6544;51.666;6.634;2022-09-09T06:21:16;16.70;99.90
12959;DHT22;6544;51.666;6.634;2022-09-09T06:23:44;16.70;99.90
12959;DHT22;6544;51.666;6.634;2022-09-09T06:26:14;16.70;99.90
12959;DHT22;6544;51.666;6.634;2022-09-09T06:28:43;16.70;99.90
12959;DHT22;6544;51.666;6.634;2022-09-09T06:31:12;16.70;99.90
12959;DHT22;6544;51.666;6.634;2022-09-09T06:33:41;16.70;99.90
12959;DHT22;6544;51.666;6.634;2022-09-09T06:36:12;16.70;95.50
12959;DHT22;6544;51.666;6.634;2022-09-09T06:38:39;16.70;87.60
12959;DHT22;6544;51.666;6.634;2022-09-09T06:41:07;16.70;99.90
12959;DHT22;6544;51.666;6.634;2022-09-09T06:43:36;16.80;99.90
12959;DHT22;6544;51.666;6.634;2022-09-09T06:46:05;16.70;99.90
12959;DHT22;6544;51.666;6.634;2022-09-09T06:48:38;16.80;99.90
12959;DHT22;6544;51.666;6.634;2022-09-09T06:51:09;16.80;99.90
12959;DHT22;6544;51.666;6.634;2022-09-09T06:53:38;16.80;92.90
12959;DHT22;6544;51.666;6.634;2022-09-09T06:56:19;16.80;85.20
12959;DHT22;6544;51.666;6.634;2022-09-09T06:58:49;16.90;83.60
12959;DHT22;6544;51.666;6.634;2022-09-09T07:01:18;16.90;80.10
12959;DHT22;6544;51.666;6.634;2022-09-09T07:03:47;16.90;81.90
12959;DHT22;6544;51.666;6.634;2022-09-09T07:06:17;17.00;44.20
12959;DHT22;6544;51.666;6.634;2022-09-09T07:08:49;17.00;12.90
12959;DHT22;6544;51.666;6.634;2022-09-09T07:11:16;17.00;8.30
12959;DHT22;6544;51.666;6.634;2022-09-09T07:13:43;17.10;1.00
12959;DHT22;6544;51.666;6.634;2022-09-09T07:16:13;17.20;6.80
12959;DHT22;6544;51.666;6.634;2022-09-09T07:18:40;17.20;1.00
12959;DHT22;6544;51.666;6.634;2022-09-09T07:21:10;17.20;1.00
12959;DHT22;6544;51.666;6.634;2022-09-09T07:23:37;17.30;1.00
12959;DHT22;6544;51.666;6.634;2022-09-09T07:26:08;17.40;1.00
12959;DHT22;6544;51.666;6.634;2022-09-09T07:28:36;17.40;1.00
12959;DHT22;6544;51.666;6.634;2022-09-09T07:31:04;17.40;1.00
12959;DHT22;6544;51.666;6.634;2022-09-09T07:33:34;17.50;1.00
12959;DHT22;6544;51.666;6.634;2022-09-09T07:36:04;17.60;1.00
12959;DHT22;6544;51.666;6.634;2022-09-09T07:38:31;17.60;1.00
12959;DHT22;6544;51.666;6.634;2022-09-09T07:41:04;17.70;1.00
12959;DHT22;6544;51.666;6.634;2022-09-09T07:43:31;17.60;1.00
12959;DHT22;6544;51.666;6.634;2022-09-09T07:45:59;17.60;1.00
12959;DHT22;6544;51.666;6.634;2022-09-09T07:48:27;17.60;1.00
12959;DHT22;6544;51.666;6.634;2022-09-09T07:51:07;17.50;1.00
12959;DHT22;6544;51.666;6.634;2022-09-09T07:53:36;17.50;1.00
12959;DHT22;6544;51.666;6.634;2022-09-09T07:56:05;17.50;1.00
12959;DHT22;6544;51.666;6.634;2022-09-09T07:58:33;17.60;1.00
12959;DHT22;6544;51.666;6.634;2022-09-09T08:00:59;17.60;1.00
12959;DHT22;6544;51.666;6.634;2022-09-09T08:03:26;17.60;1.00
12959;DHT22;6544;51.666;6.634;2022-09-09T08:06:00;17.60;1.00
12959;DHT22;6544;51.666;6.634;2022-09-09T08:08:29;17.70;1.00
12959;DHT22;6544;51.666;6.634;2022-09-09T08:11:02;17.70;99.90
12959;DHT22;6544;51.666;6.634;2022-09-09T08:13:30;17.70;99.90
12959;DHT22;6544;51.666;6.634;2022-09-09T08:16:04;17.70;99.90
12959;DHT22;6544;51.666;6.634;2022-09-09T08:18:31;17.60;99.90
12959;DHT22;6544;51.666;6.634;2022-09-09T08:21:05;17.70;99.90
12959;DHT22;6544;51.666;6.634;2022-09-09T08:23:33;17.70;99.90
12959;DHT22;6544;51.666;6.634;2022-09-09T08:26:04;17.70;99.90
12959;DHT22;6544;51.666;6.634;2022-09-09T08:28:32;17.80;99.90
12959;DHT22;6544;51.666;6.634;2022-09-09T08:31:06;17.90;75.00
12959;DHT22;6544;51.666;6.634;2022-09-09T08:33:33;18.00;99.90
12959;DHT22;6544;51.666;6.634;2022-09-09T08:36:02;18.10;99.90
12959;DHT22;6544;51.666;6.634;2022-09-09T08:38:28;18.10;53.80
12959;DHT22;6544;51.666;6.634;2022-09-09T08:41:08;18.10;99.90
12959;DHT22;6544;51.666;6.634;2022-09-09T08:43:37;18.30;99.90
12959;DHT22;6544;51.666;6.634;2022-09-09T08:46:09;18.40;19.60
12959;DHT22;6544;51.666;6.634;2022-09-09T08:48:48;18.50;2.80
12959;DHT22;6544;51.666;6.634;2022-09-09T08:51:19;18.60;1.00
12959;DHT22;6544;51.666;6.634;2022-09-09T08:53:49;18.50;1.00
12959;DHT22;6544;51.666;6.634;2022-09-09T08:56:21;18.50;1.00
12959;DHT22;6544;51.666;6.634;2022-09-09T08:58:51;18.50;1.00
12959;DHT22;6544;51.666;6.634;2022-09-09T09:01:41;18.60;1.00
12959;DHT22;6544;51.666;6.634;2022-09-09T09:04:20;18.60;1.00
12959;DHT22;6544;51.666;6.634;2022-09-09T09:06:55;18.60;1.00
12959;DHT22;6544;51.666;6.634;2022-09-09T09:09:31;18.60;1.00
12959;DHT22;6544;51.666;6.634;2022-09-09T09:12:14;18.60;1.00
12959;DHT22;6544;51.666;6.634;2022-09-09T09:14:43;18.60;1.00
12959;DHT22;6544;51.666;6.634;2022-09-09T09:17:12;18.60;1.00
12959;DHT22;6544;51.666;6.634;2022-09-09T09:19:41;18.60;1.00
12959;DHT22;6544;51.666;6.634;2022-09-09T09:22:16;18.60;1.00
12959;DHT22;6544;51.666;6.634;2022-09-09T09:24:50;18.60;1.00
12959;DHT22;6544;51.666;6.634;2022-09-09T09:27:26;18.60;1.00
12959;DHT22;6544;51.666;6.634;2022-09-09T09:29:58;18.50;1.00
12959;DHT22;6544;51.666;6.634;2022-09-09T09:32:32;18.50;1.00
12959;DHT22;6544;51.666;6.634;2022-09-09T09:35:02;18.60;1.00
12959;DHT22;6544;51.666;6.634;2022-09-09T09:37:34;18.60;1.00
12959;DHT22;6544;51.666;6.634;2022-09-09T09:40:09;18.50;1.00
12959;DHT22;6544;51.666;6.634;2022-09-09T09:42:38;18.60;1.00
12959;DHT22;6544;51.666;6.634;2022-09-09T09:45:16;18.60;1.00
12959;DHT22;6544;51.666;6.634;2022-09-09T09:47:45;18.60;1.00
12959;DHT22;6544;51.666;6.634;2022-09-09T09:50:19;18.50;1.00
12959;DHT22;6544;51.666;6.634;2022-09-09T09:52:54;18.60;1.00
12959;DHT22;6544;51.666;6.634;2022-09-09T09:55:23;18.50;1.00
12959;DHT22;6544;51.666;6.634;2022-09-09T09:57:51;18.50;1.00
12959;DHT22;6544;51.666;6.634;2022-09-09T10:00:20;18.60;1.00
12959;DHT22;6544;51.666;6.634;2022-09-09T10:02:48;18.80;1.00
12959;DHT22;6544;51.666;6.634;2022-09-09T10:05:19;18.90;1.00
12959;DHT22;6544;51.666;6.634;2022-09-09T10:07:47;19.10;1.00
12959;DHT22;6544;51.666;6.634;2022-09-09T10:10:45;19.30;1.00
12959;DHT22;6544;51.666;6.634;2022-09-09T10:13:20;19.50;1.00
12959;DHT22;6544;51.666;6.634;2022-09-09T10:16:02;19.50;1.00
12959;DHT22;6544;51.666;6.634;2022-09-09T10:18:47;19.50;1.00
12959;DHT22;6544;51.666;6.634;2022-09-09T10:21:40;19.50;1.00
12959;DHT22;6544;51.666;6.634;2022-09-09T10:24:30;19.50;1.00
12959;DHT22;6544;51.666;6.634;2022-09-09T10:27:05;19.50;1.00
12959;DHT22;6544;51.666;6.634;2022-09-09T10:32:41;19.50;1.00
12959;DHT22;6544;51.666;6.634;2022-09-09T10:35:29;19.50;99.90
12959;DHT22;6544;51.666;6.634;2022-09-09T10:38:13;19.50;1.00
12959;DHT22;6544;51.666;6.634;2022-09-09T10:40:48;19.50;99.90
12959;DHT22;6544;51.666;6.634;2022-09-09T10:43:31;19.60;1.00
12959;DHT22;6544;51.666;6.634;2022-09-09T10:46:08;19.50;99.90
12959;DHT22;6544;51.666;6.634;2022-09-09T10:48:50;19.50;1.00
12959;DHT22;6544;51.666;6.634;2022-09-09T10:51:26;19.50;99.90
12959;DHT22;6544;51.666;6.634;2022-09-09T10:54:13;19.50;99.90
12959;DHT22;6544;51.666;6.634;2022-09-09T10:56:48;19.40;1.00
12959;DHT22;6544;51.666;6.634;2022-09-09T10:59:22;19.40;1.00
12959;DHT22;6544;51.666;6.634;2022-09-09T11:01:55;19.40;1.00
12959;DHT22;6544;51.666;6.634;2022-09-09T11:04:27;19.30;1.00
12959;DHT22;6544;51.666;6.634;2022-09-09T11:06:56;19.30;1.00
12959;DHT22;6544;51.666;6.634;2022-09-09T11:09:27;19.30;1.00
12959;DHT22;6544;51.666;6.634;2022-09-09T11:11:56;19.30;1.00
12959;DHT22;6544;51.666;6.634;2022-09-09T11:14:28;19.30;1.00
12959;DHT22;6544;51.666;6.634;2022-09-09T11:16:58;19.30;1.00
12959;DHT22;6544;51.666;6.634;2022-09-09T11:19:31;19.30;1.00
12959;DHT22;6544;51.666;6.634;2022-09-09T11:22:02;19.30;1.00
12959;DHT22;6544;51.666;6.634;2022-09-09T11:24:35;19.40;1.00
12959;DHT22;6544;51.666;6.634;2022-09-09T11:27:09;19.50;1.00
12959;DHT22;6544;51.666;6.634;2022-09-09T11:33:06;19.50;1.00
12959;DHT22;6544;51.666;6.634;2022-09-09T11:35:45;19.50;1.00
12959;DHT22;6544;51.666;6.634;2022-09-09T11:38:21;19.40;1.00
12959;DHT22;6544;51.666;6.634;2022-09-09T11:40:56;19.40;1.00
12959;DHT22;6544;51.666;6.634;2022-09-09T11:43:28;19.30;1.00
12959;DHT22;6544;51.666;6.634;2022-09-09T11:45:59;19.30;1.00
12959;DHT22;6544;51.666;6.634;2022-09-09T11:48:34;19.30;1.00
12959;DHT22;6544;51.666;6.634;2022-09-09T11:51:05;19.40;1.00
12959;DHT22;6544;51.666;6.634;2022-09-09T11:53:34;19.40;1.00
12959;DHT22;6544;51.666;6.634;2022-09-09T11:56:07;19.40;1.00
12959;DHT22;6544;51.666;6.634;2022-09-09T11:58:40;19.40;1.00
12959;DHT22;6544;51.666;6.634;2022-09-09T12:01:34;19.40;1.00
12959;DHT22;6544;51.666;6.634;2022-09-09T12:04:28;19.30;1.00
12959;DHT22;6544;51.666;6.634;2022-09-09T12:07:00;19.30;1.00
12959;DHT22;6544;51.666;6.634;2022-09-09T12:09:46;19.40;40.70
12959;DHT22;6544;51.666;6.634;2022-09-09T12:12:32;19.40;1.00
12959;DHT22;6544;51.666;6.634;2022-09-09T12:15:19;19.50;43.80
12959;DHT22;6544;51.666;6.634;2022-09-09T12:17:48;19.50;80.10
12959;DHT22;6544;51.666;6.634;2022-09-09T12:20:18;19.50;60.90
12959;DHT22;6544;51.666;6.634;2022-09-09T12:25:45;19.60;1.00
12959;DHT22;6544;51.666;6.634;2022-09-09T12:28:17;19.40;1.00
12959;DHT22;6544;51.666;6.634;2022-09-09T12:30:49;19.30;17.80
12959;DHT22;6544;51.666;6.634;2022-09-09T12:33:19;19.30;83.60
12959;DHT22;6544;51.666;6.634;2022-09-09T12:35:50;19.30;99.90
12959;DHT22;6544;51.666;6.634;2022-09-09T12:38:26;19.30;99.90
12959;DHT22;6544;51.666;6.634;2022-09-09T12:40:56;19.30;99.90
12959;DHT22;6544;51.666;6.634;2022-09-09T12:43:25;19.10;1.00
12959;DHT22;6544;51.666;6.634;2022-09-09T12:45:56;18.90;1.00
12959;DHT22;6544;51.666;6.634;2022-09-09T12:48:30;18.70;1.00
12959;DHT22;6544;51.666;6.634;2022-09-09T12:50:58;18.50;1.00
12959;DHT22;6544;51.666;6.634;2022-09-09T12:53:29;18.20;1.00
12959;DHT22;6544;51.666;6.634;2022-09-09T12:55:59;18.10;1.00
12959;DHT22;6544;51.666;6.634;2022-09-09T12:58:29;18.00;1.00
12959;DHT22;6544;51.666;6.634;2022-09-09T13:00:59;17.90;1.00
12959;DHT22;6544;51.666;6.634;2022-09-09T13:03:27;17.90;1.00
12959;DHT22;6544;51.666;6.634;2022-09-09T13:05:57;17.80;1.00
12959;DHT22;6544;51.666;6.634;2022-09-09T13:08:27;17.80;1.00
12959;DHT22;6544;51.666;6.634;2022-09-09T13:10:57;17.90;1.00
12959;DHT22;6544;51.666;6.634;2022-09-09T13:13:27;18.00;23.70
12959;DHT22;6544;51.666;6.634;2022-09-09T13:15:56;18.10;6.70
12959;DHT22;6544;51.666;6.634;2022-09-09T13:18:27;18.20;91.80
12959;DHT22;6544;51.666;6.634;2022-09-09T13:20:55;18.40;99.90
12959;DHT22;6544;51.666;6.634;2022-09-09T13:23:29;18.50;99.90
12959;DHT22;6544;51.666;6.634;2022-09-09T13:26:01;18.40;1.00
12959;DHT22;6544;51.666;6.634;2022-09-09T13:28:30;18.60;1.00
12959;DHT22;6544;51.666;6.634;2022-09-09T13:30:59;18.60;1.00
12959;DHT22;6544;51.666;6.634;2022-09-09T13:33:31;18.60;1.00
12959;DHT22;6544;51.666;6.634;2022-09-09T13:36:00;18.70;1.00
12959;DHT22;6544;51.666;6.634;2022-09-09T13:38:32;18.70;1.00
12959;DHT22;6544;51.666;6.634;2022-09-09T13:41:01;18.70;1.00
12959;DHT22;6544;51.666;6.634;2022-09-09T13:43:31;18.60;1.00
12959;DHT22;6544;51.666;6.634;2022-09-09T13:46:02;18.60;1.00
12959;DHT22;6544;51.666;6.634;2022-09-09T13:48:29;18.60;1.00
12959;DHT22;6544;51.666;6.634;2022-09-09T13:51:00;18.70;1.00
12959;DHT22;6544;51.666;6.634;2022-09-09T13:53:27;18.70;1.00
12959;DHT22;6544;51.666;6.634;2022-09-09T13:55:55;18.80;1.00
12959;DHT22;6544;51.666;6.634;2022-09-09T13:58:23;18.80;1.00
12959;DHT22;6544;51.666;6.634;2022-09-09T14:00:51;18.90;1.00
12959;DHT22;6544;51.666;6.634;2022-09-09T14:03:18;19.10;1.00
12959;DHT22;6544;51.666;6.634;2022-09-09T14:05:45;19.00;99.90
12959;DHT22;6544;51.666;6.634;2022-09-09T14:08:21;19.10;99.90
12959;DHT22;6544;51.666;6.634;2022-09-09T14:10:49;19.20;99.90
12959;DHT22;6544;51.666;6.634;2022-09-09T14:13:17;19.20;99.90
12959;DHT22;6544;51.666;6.634;2022-09-09T14:15:44;19.20;99.90
12959;DHT22;6544;51.666;6.634;2022-09-09T14:18:12;19.30;99.90
12959;DHT22;6544;51.666;6.634;2022-09-09T14:20:40;19.20;99.90
12959;DHT22;6544;51.666;6.634;2022-09-09T14:23:10;19.30;74.10
12959;DHT22;6544;51.666;6.634;2022-09-09T14:25:40;19.30;1.00
12959;DHT22;6544;51.666;6.634;2022-09-09T14:28:09;19.30;1.00
12959;DHT22;6544;51.666;6.634;2022-09-09T14:30:39;19.30;30.10
12959;DHT22;6544;51.666;6.634;2022-09-09T14:33:06;19.30;99.90
12959;DHT22;6544;51.666;6.634;2022-09-09T14:35:34;19.30;48.80
12959;DHT22;6544;51.666;6.634;2022-09-09T14:38:02;19.30;6.10
12959;DHT22;6544;51.666;6.634;2022-09-09T14:40:30;19.30;1.70
12959;DHT22;6544;51.666;6.634;2022-09-09T14:42:57;19.40;1.00
12959;DHT22;6544;51.666;6.634;2022-09-09T14:45:24;19.40;1.00
12959;DHT22;6544;51.666;6.634;2022-09-09T14:47:53;19.20;99.90
12959;DHT22;6544;51.666;6.634;2022-09-09T14:50:21;19.00;99.90
12959;DHT22;6544;51.666;6.634;2022-09-09T14:52:49;18.90;99.90
12959;DHT22;6544;51.666;6.634;2022-09-09T14:55:16;18.80;99.90
12959;DHT22;6544;51.666;6.634;2022-09-09T14:57:43;18.70;99.90
12959;DHT22;6544;51.666;6.634;2022-09-09T15:00:11;18.70;1.00
12959;DHT22;6544;51.666;6.634;2022-09-09T15:02:38;18.70;99.90
12959;DHT22;6544;51.666;6.634;2022-09-09T15:05:09;18.60;99.90
12959;DHT22;6544;51.666;6.634;2022-09-09T15:07:36;18.40;1.00
12959;DHT22;6544;51.666;6.634;2022-09-09T15:10:04;18.40;1.00
12959;DHT22;6544;51.666;6.634;2022-09-09T15:12:32;18.30;1.00
12959;DHT22;6544;51.666;6.634;2022-09-09T15:15:01;18.20;1.00
12959;DHT22;6544;51.666;6.634;2022-09-09T15:17:27;18.20;1.00
12959;DHT22;6544;51.666;6.634;2022-09-09T15:19:54;18.20;1.00
12959;DHT22;6544;51.666;6.634;2022-09-09T15:22:23;18.30;1.00
12959;DHT22;6544;51.666;6.634;2022-09-09T15:24:50;18.30;1.00
12959;DHT22;6544;51.666;6.634;2022-09-09T15:27:17;18.30;1.00
12959;DHT22;6544;51.666;6.634;2022-09-09T15:29:44;18.30;1.00
12959;DHT22;6544;51.666;6.634;2022-09-09T15:32:12;18.30;1.00
12959;DHT22;6544;51.666;6.634;2022-09-09T15:34:39;18.30;1.00
12959;DHT22;6544;51.666;6.634;2022-09-09T15:37:06;18.30;1.00
12959;DHT22;6544;51.666;6.634;2022-09-09T15:39:34;18.30;1.00
12959;DHT22;6544;51.666;6.634;2022-09-09T15:42:01;18.30;1.00
12959;DHT22;6544;51.666;6.634;2022-09-09T15:44:28;18.40;1.00
12959;DHT22;6544;51.666;6.634;2022-09-09T15:46:55;18.40;1.00
12959;DHT22;6544;51.666;6.634;2022-09-09T15:49:23;18.40;1.00
12959;DHT22;6544;51.666;6.634;2022-09-09T15:51:52;18.50;1.00
12959;DHT22;6544;51.666;6.634;2022-09-09T15:54:20;18.50;1.00
12959;DHT22;6544;51.666;6.634;2022-09-09T15:56:55;18.50;1.00
12959;DHT22;6544;51.666;6.634;2022-09-09T15:59:23;18.50;1.00
12959;DHT22;6544;51.666;6.634;2022-09-09T16:01:50;18.40;1.00
12959;DHT22;6544;51.666;6.634;2022-09-09T16:04:17;18.30;1.00
12959;DHT22;6544;51.666;6.634;2022-09-09T16:06:49;18.30;1.00
12959;DHT22;6544;51.666;6.634;2022-09-09T16:09:17;18.30;1.00
12959;DHT22;6544;51.666;6.634;2022-09-09T16:11:44;18.40;1.00
12959;DHT22;6544;51.666;6.634;2022-09-09T16:14:14;18.40;1.00
12959;DHT22;6544;51.666;6.634;2022-09-09T16:16:42;18.40;1.00
12959;DHT22;6544;51.666;6.634;2022-09-09T16:19:10;18.40;1.00
12959;DHT22;6544;51.666;6.634;2022-09-09T16:21:45;18.40;1.00
12959;DHT22;6544;51.666;6.634;2022-09-09T16:24:14;18.40;1.00
12959;DHT22;6544;51.666;6.634;2022-09-09T16:26:44;18.40;1.00
12959;DHT22;6544;51.666;6.634;2022-09-09T16:29:13;18.40;1.00
12959;DHT22;6544;51.666;6.634;2022-09-09T16:31:40;18.40;1.00
12959;DHT22;6544;51.666;6.634;2022-09-09T16:34:07;18.40;1.00